Lecce Airport LIBN

Flugplatz Daten

Name: Lecce Airport

Ident: LIBN

Lat: 40,23920059

Long: 18,13330078

Platzhöhe: 156 ft

IataCode: LCC

City:

Metar

2021/12/03 23:55
LIBN 032355Z 33010KT 9999 SCT015 SCT035 11/11 Q1006 RMK OVC BKN060 VIS MIN 9999 WIND THR14 34009KT WIND THR32 34010KT BLU

Taf

2021/06/28 12:51
TAF TAF LIBN 281100Z 2812/2824 VRB03KT CAVOK
Gewünschte Webcam nicht vorhanden? Dann fügen Sie eine hinzu. Sie wird dann so schnell wie möglich freigeschaltet
Url: Title: